createdAt,value
2018-09-24T00:00:17.819Z,9.60
2018-09-24T00:02:46.175Z,9.60
2018-09-24T00:05:14.287Z,9.60
2018-09-24T00:07:42.527Z,9.50
2018-09-24T00:10:10.633Z,9.50
2018-09-24T00:12:38.783Z,9.40
2018-09-24T00:15:06.881Z,9.40
2018-09-24T00:17:34.972Z,9.50
2018-09-24T00:20:03.088Z,9.50
2018-09-24T00:22:31.180Z,9.40
2018-09-24T00:24:59.281Z,9.50
2018-09-24T00:27:27.373Z,9.40
2018-09-24T00:29:56.025Z,9.60
2018-09-24T00:32:24.128Z,9.60
2018-09-24T00:34:52.351Z,9.50
2018-09-24T00:37:20.457Z,9.50
2018-09-24T00:39:48.548Z,9.50
2018-09-24T00:42:16.642Z,9.40
2018-09-24T00:44:44.744Z,9.40
2018-09-24T00:47:12.838Z,9.40
2018-09-24T00:49:40.939Z,9.40
2018-09-24T00:52:09.037Z,9.40
2018-09-24T00:54:37.146Z,9.30
2018-09-24T00:57:05.234Z,9.30
2018-09-24T00:59:33.315Z,9.30
2018-09-24T01:02:01.417Z,9.30
2018-09-24T01:04:29.590Z,9.30
2018-09-24T01:06:57.766Z,9.40
2018-09-24T01:09:25.851Z,9.30
2018-09-24T01:11:54.147Z,9.40
2018-09-24T01:14:22.254Z,9.30
2018-09-24T01:17:53.855Z,9.30
2018-09-24T01:20:21.954Z,9.30
2018-09-24T01:22:50.051Z,9.20
2018-09-24T01:25:18.153Z,9.20
2018-09-24T01:27:46.232Z,9.20
2018-09-24T01:30:14.334Z,9.20
2018-09-24T01:32:42.429Z,9.20
2018-09-24T01:35:10.528Z,9.20
2018-09-24T01:37:38.626Z,9.20
2018-09-24T01:40:07.169Z,9.20
2018-09-24T01:42:35.252Z,9.20
2018-09-24T01:45:03.344Z,9.20
2018-09-24T01:47:31.429Z,9.20
2018-09-24T01:49:59.531Z,9.20
2018-09-24T01:52:27.626Z,9.20
2018-09-24T01:54:55.716Z,9.20
2018-09-24T01:57:23.821Z,9.10
2018-09-24T01:59:54.514Z,9.10
2018-09-24T02:02:22.607Z,9.10
2018-09-24T02:04:51.046Z,9.20
2018-09-24T02:07:19.341Z,9.20
2018-09-24T02:09:47.802Z,9.10
2018-09-24T02:12:15.920Z,9.00
2018-09-24T02:14:44.147Z,8.90
2018-09-24T02:17:16.321Z,9.00
2018-09-24T02:19:45.203Z,9.00
2018-09-24T02:22:29.465Z,9.10
2018-09-24T02:24:58.457Z,9.10
2018-09-24T02:27:26.836Z,9.10
2018-09-24T02:29:54.949Z,9.10
2018-09-24T02:32:23.179Z,9.10
2018-09-24T02:34:53.599Z,9.20
2018-09-24T02:37:21.714Z,9.20
2018-09-24T02:39:49.802Z,9.20
2018-09-24T02:42:17.888Z,9.20
2018-09-24T02:44:46.027Z,9.20
2018-09-24T02:47:14.077Z,9.20
2018-09-24T02:49:42.180Z,9.10
2018-09-24T02:52:10.281Z,9.20
2018-09-24T02:54:38.381Z,9.20
2018-09-24T02:57:06.483Z,9.10
2018-09-24T02:59:34.566Z,9.00
2018-09-24T03:02:02.660Z,9.00
2018-09-24T03:04:30.762Z,9.10
2018-09-24T03:06:58.858Z,9.10
2018-09-24T03:09:26.959Z,9.00
2018-09-24T03:11:55.059Z,8.90
2018-09-24T03:14:24.027Z,8.80
2018-09-24T03:16:52.942Z,8.90
2018-09-24T03:19:21.024Z,8.90
2018-09-24T03:21:49.138Z,8.90
2018-09-24T03:24:17.229Z,8.90
2018-09-24T03:26:45.337Z,8.90
2018-09-24T03:29:18.829Z,8.90
2018-09-24T03:31:46.927Z,8.90
2018-09-24T03:34:16.218Z,9.00
2018-09-24T03:36:44.635Z,8.80
2018-09-24T03:39:12.726Z,8.70
2018-09-24T03:41:40.992Z,8.70
2018-09-24T03:44:09.412Z,8.80
2018-09-24T03:46:37.520Z,8.70
2018-09-24T03:49:05.721Z,8.60
2018-09-24T03:51:33.821Z,8.70
2018-09-24T03:54:01.921Z,8.80
2018-09-24T03:56:30.014Z,8.70
2018-09-24T03:58:58.191Z,8.80
2018-09-24T04:01:26.221Z,8.80
2018-09-24T04:03:59.649Z,8.80
2018-09-24T04:06:33.142Z,8.80
2018-09-24T04:09:06.573Z,8.80
2018-09-24T04:11:40.231Z,8.70
2018-09-24T04:14:13.832Z,8.60
2018-09-24T04:16:47.318Z,8.60
2018-09-24T04:19:20.735Z,8.60
2018-09-24T04:21:54.218Z,8.50
2018-09-24T04:24:27.912Z,8.40
2018-09-24T04:27:01.487Z,8.40
2018-09-24T04:29:34.964Z,8.50
2018-09-24T04:32:08.355Z,8.50
2018-09-24T04:34:42.017Z,8.40
2018-09-24T04:37:15.452Z,8.40
2018-09-24T04:39:48.961Z,8.50
2018-09-24T04:42:22.509Z,8.40
2018-09-24T04:44:56.040Z,8.50
2018-09-24T04:47:29.475Z,8.50
2018-09-24T04:50:03.116Z,8.40
2018-09-24T04:52:36.652Z,8.30
2018-09-24T04:55:10.041Z,8.20
2018-09-24T04:57:43.697Z,8.10
2018-09-24T05:00:17.193Z,8.10
2018-09-24T05:02:50.655Z,8.10
2018-09-24T05:05:24.337Z,8.10
2018-09-24T05:07:57.764Z,8.10
2018-09-24T05:10:31.100Z,8.10
2018-09-24T05:13:04.454Z,8.10
2018-09-24T05:15:38.103Z,8.00
2018-09-24T05:18:11.825Z,8.00
2018-09-24T05:20:45.226Z,8.10
2018-09-24T05:23:18.893Z,8.00
2018-09-24T05:25:52.570Z,7.90
2018-09-24T05:28:26.038Z,8.00
2018-09-24T05:30:59.569Z,7.90
2018-09-24T05:33:33.208Z,8.00
2018-09-24T05:36:06.722Z,7.90
2018-09-24T05:38:40.225Z,7.90
2018-09-24T05:41:13.954Z,8.10
2018-09-24T05:43:47.387Z,8.10
2018-09-24T05:46:20.752Z,8.10
2018-09-24T05:48:54.428Z,8.10
2018-09-24T05:51:27.987Z,8.10
2018-09-24T05:54:01.374Z,8.20
2018-09-24T05:56:34.853Z,8.20
2018-09-24T05:59:08.140Z,8.10
2018-09-24T06:01:41.614Z,8.10
2018-09-24T06:04:15.223Z,8.00
2018-09-24T06:06:48.663Z,7.90
2018-09-24T06:09:22.335Z,7.90
2018-09-24T06:11:55.833Z,8.00
2018-09-24T06:14:29.228Z,8.10
2018-09-24T06:17:02.858Z,8.10
2018-09-24T06:19:36.376Z,8.00
2018-09-24T06:22:09.900Z,8.00
2018-09-24T06:24:43.283Z,8.10
2018-09-24T06:27:16.934Z,8.10
2018-09-24T06:29:50.630Z,8.10
2018-09-24T06:32:24.057Z,8.20
2018-09-24T06:34:57.738Z,8.30
2018-09-24T06:37:31.311Z,8.30
2018-09-24T06:40:05.010Z,8.30
2018-09-24T06:42:38.500Z,8.10
2018-09-24T06:45:12.122Z,8.30
2018-09-24T06:47:45.803Z,8.20
2018-09-24T06:50:19.324Z,8.20
2018-09-24T06:52:52.821Z,8.30
2018-09-24T06:55:26.214Z,9.00
2018-09-24T06:57:59.699Z,9.00
2018-09-24T07:00:33.121Z,8.90
2018-09-24T07:03:06.855Z,8.90
2018-09-24T07:05:40.451Z,8.70
2018-09-24T07:08:14.000Z,8.70
2018-09-24T07:10:47.356Z,8.60
2018-09-24T07:13:20.766Z,8.50
2018-09-24T07:15:54.427Z,8.50
2018-09-24T07:18:27.912Z,8.50
2018-09-24T07:21:01.620Z,8.50
2018-09-24T07:23:35.188Z,8.60
2018-09-24T07:26:08.839Z,8.60
2018-09-24T07:28:42.472Z,8.70
2018-09-24T07:31:16.008Z,8.70
2018-09-24T07:33:49.708Z,8.70
2018-09-24T07:36:23.314Z,8.80
2018-09-24T07:38:56.835Z,8.90
2018-09-24T07:41:30.479Z,9.00
2018-09-24T07:44:04.010Z,9.10
2018-09-24T07:46:37.673Z,9.30
2018-09-24T07:49:11.100Z,9.40
2018-09-24T07:51:44.821Z,9.50
2018-09-24T07:54:18.316Z,9.70
2018-09-24T07:56:51.773Z,9.90
2018-09-24T07:59:25.464Z,10.00
2018-09-24T08:01:59.017Z,10.20
2018-09-24T08:04:32.659Z,10.40
2018-09-24T08:07:06.233Z,10.70
2018-09-24T08:09:39.720Z,11.00
2018-09-24T08:12:13.366Z,11.30
2018-09-24T08:14:46.998Z,11.40
2018-09-24T08:17:20.527Z,11.70
2018-09-24T08:19:53.910Z,11.70
2018-09-24T08:22:27.424Z,11.70
2018-09-24T08:25:01.177Z,11.40
2018-09-24T08:27:34.758Z,11.30
2018-09-24T08:30:08.342Z,11.50
2018-09-24T08:32:41.823Z,11.70
2018-09-24T08:35:15.437Z,12.20
2018-09-24T08:37:48.989Z,12.40
2018-09-24T08:40:22.378Z,12.50
2018-09-24T08:42:56.024Z,12.70
2018-09-24T08:45:29.610Z,12.70
2018-09-24T08:48:03.068Z,12.80
2018-09-24T08:50:36.567Z,12.90
2018-09-24T08:53:10.174Z,13.20
2018-09-24T08:55:43.728Z,13.10
2018-09-24T08:58:17.304Z,13.40
2018-09-24T09:00:50.762Z,13.70
2018-09-24T09:03:24.336Z,13.90
2018-09-24T09:05:57.864Z,14.00
2018-09-24T09:08:31.277Z,14.10
2018-09-24T09:11:04.798Z,14.30
2018-09-24T09:13:38.372Z,14.10
2018-09-24T09:16:12.244Z,14.00
2018-09-24T09:18:45.687Z,14.10
2018-09-24T09:21:19.269Z,14.50
2018-09-24T09:23:52.970Z,14.50
2018-09-24T09:26:26.415Z,14.60
2018-09-24T09:28:59.879Z,14.40
2018-09-24T09:31:33.581Z,14.70
2018-09-24T09:34:07.102Z,14.90
2018-09-24T09:36:40.496Z,15.20
2018-09-24T09:39:14.190Z,15.20
2018-09-24T09:41:47.719Z,15.00
2018-09-24T09:44:21.400Z,14.80
2018-09-24T09:46:55.069Z,14.80
2018-09-24T09:49:28.733Z,14.90
2018-09-24T09:52:02.393Z,14.70
2018-09-24T09:54:35.952Z,15.50
2018-09-24T09:57:09.551Z,15.40
2018-09-24T09:59:42.911Z,15.20
2018-09-24T10:02:16.274Z,15.30
2018-09-24T10:04:49.913Z,14.90
2018-09-24T10:07:23.552Z,15.00
2018-09-24T10:09:57.061Z,14.80
2018-09-24T10:12:30.420Z,14.50
2018-09-24T10:15:03.961Z,14.50
2018-09-24T10:17:37.433Z,14.60
2018-09-24T10:20:17.734Z,14.80
2018-09-24T10:22:51.470Z,14.90
2018-09-24T10:25:25.264Z,15.10
2018-09-24T10:27:58.666Z,15.00
2018-09-24T10:30:32.466Z,15.00
2018-09-24T10:33:12.619Z,14.90
2018-09-24T10:35:46.243Z,14.60
2018-09-24T10:38:19.787Z,14.50
2018-09-24T10:40:53.134Z,14.40
2018-09-24T10:43:26.676Z,14.30
2018-09-24T10:46:00.210Z,14.10
2018-09-24T10:48:33.843Z,14.00
2018-09-24T10:51:07.397Z,14.00
2018-09-24T10:53:41.005Z,14.00
2018-09-24T10:56:14.654Z,13.90
2018-09-24T10:58:48.048Z,14.10
2018-09-24T11:01:21.717Z,14.20
2018-09-24T11:03:55.047Z,14.50
2018-09-24T11:06:28.661Z,14.40
2018-09-24T11:09:02.165Z,14.40
2018-09-24T11:11:35.891Z,14.20
2018-09-24T11:14:09.296Z,14.20
2018-09-24T11:16:42.980Z,14.40
2018-09-24T11:19:16.411Z,14.50
2018-09-24T11:21:50.145Z,14.50
2018-09-24T11:24:23.765Z,14.20
2018-09-24T11:26:57.132Z,14.20
2018-09-24T11:29:30.923Z,14.10
2018-09-24T11:32:04.411Z,14.00
2018-09-24T11:34:38.968Z,14.00
2018-09-24T11:37:12.636Z,13.90
2018-09-24T11:39:46.195Z,13.90
2018-09-24T11:42:19.583Z,13.80
2018-09-24T11:44:53.223Z,13.80
2018-09-24T11:47:26.818Z,13.80
2018-09-24T11:50:00.437Z,13.90
2018-09-24T11:52:34.031Z,14.30
2018-09-24T11:55:07.595Z,14.40
2018-09-24T11:57:40.945Z,14.40
2018-09-24T12:00:14.618Z,14.40
2018-09-24T12:02:48.067Z,14.60
2018-09-24T12:05:21.669Z,14.70
2018-09-24T12:07:55.166Z,14.80
2018-09-24T12:10:28.880Z,14.80
2018-09-24T12:13:02.225Z,14.80
2018-09-24T12:15:35.947Z,14.80
2018-09-24T12:18:09.580Z,15.00
2018-09-24T12:20:43.298Z,15.10
2018-09-24T12:23:16.650Z,14.90
2018-09-24T12:25:50.250Z,14.90
2018-09-24T12:28:23.834Z,15.20
2018-09-24T12:30:57.674Z,15.40
2018-09-24T12:33:31.063Z,15.60
2018-09-24T12:36:04.652Z,15.70
2018-09-24T12:38:38.125Z,15.70
2018-09-24T12:41:11.761Z,15.70
2018-09-24T12:43:45.252Z,15.50
2018-09-24T12:46:18.667Z,15.60
2018-09-24T12:48:52.274Z,15.60
2018-09-24T12:51:25.859Z,15.40
2018-09-24T12:53:59.357Z,15.60
2018-09-24T12:56:33.016Z,15.70
2018-09-24T12:59:06.617Z,15.80
2018-09-24T13:01:39.992Z,15.70
2018-09-24T13:04:13.492Z,15.80
2018-09-24T13:06:47.011Z,15.80
2018-09-24T13:09:20.424Z,15.70
2018-09-24T13:11:53.955Z,15.60
2018-09-24T13:14:27.349Z,15.50
2018-09-24T13:17:00.919Z,15.70
2018-09-24T13:19:34.573Z,16.50
2018-09-24T13:22:07.991Z,16.10
2018-09-24T13:24:41.414Z,15.60
2018-09-24T13:27:14.922Z,15.00
2018-09-24T13:29:48.325Z,14.70
2018-09-24T13:32:21.641Z,14.50
2018-09-24T13:34:55.081Z,14.30
2018-09-24T13:37:28.502Z,14.60
2018-09-24T13:40:01.994Z,16.00
2018-09-24T13:42:35.428Z,17.00
2018-09-24T13:45:08.846Z,16.50
2018-09-24T13:47:42.269Z,16.00
2018-09-24T13:50:15.787Z,15.20
2018-09-24T13:52:49.253Z,15.00
2018-09-24T13:55:22.780Z,14.90
2018-09-24T13:57:56.280Z,14.80
2018-09-24T14:00:29.984Z,15.10
2018-09-24T14:03:03.525Z,15.00
2018-09-24T14:05:37.009Z,14.90
2018-09-24T14:08:10.432Z,14.70
2018-09-24T14:10:44.085Z,14.30
2018-09-24T14:13:17.750Z,14.30
2018-09-24T14:15:51.233Z,14.30
2018-09-24T14:18:24.613Z,14.40
2018-09-24T14:20:58.190Z,14.50
2018-09-24T14:23:31.824Z,14.50
2018-09-24T14:26:05.318Z,14.50
2018-09-24T14:28:38.923Z,14.50
2018-09-24T14:31:12.519Z,14.60
2018-09-24T14:33:46.167Z,14.50
2018-09-24T14:36:19.670Z,14.50
2018-09-24T14:38:53.100Z,14.40
2018-09-24T14:41:26.745Z,14.40
2018-09-24T14:44:07.286Z,14.40
2018-09-24T14:46:40.652Z,14.50
2018-09-24T14:49:14.216Z,14.60
2018-09-24T14:51:47.832Z,14.60
2018-09-24T14:54:21.238Z,14.70
2018-09-24T14:56:54.709Z,14.60
2018-09-24T14:59:28.417Z,14.50
2018-09-24T15:02:01.883Z,14.60
2018-09-24T15:04:35.392Z,14.60
2018-09-24T15:07:08.761Z,14.70
2018-09-24T15:09:42.409Z,14.80
2018-09-24T15:12:16.126Z,14.80
2018-09-24T15:14:49.785Z,14.80
2018-09-24T15:17:23.291Z,14.90
2018-09-24T15:19:57.278Z,14.90
2018-09-24T15:22:30.778Z,14.80
2018-09-24T15:25:04.276Z,14.60
2018-09-24T15:27:37.969Z,14.60
2018-09-24T15:30:11.296Z,14.60
2018-09-24T15:32:44.964Z,14.60
2018-09-24T15:35:18.512Z,14.50
2018-09-24T15:37:52.121Z,14.40
2018-09-24T15:40:25.472Z,14.30
2018-09-24T15:42:59.134Z,14.30
2018-09-24T15:45:33.627Z,14.30
2018-09-24T15:48:07.109Z,14.40
2018-09-24T15:50:40.622Z,14.40
2018-09-24T15:53:14.151Z,14.50
2018-09-24T15:55:47.588Z,14.50
2018-09-24T15:58:21.244Z,14.60
2018-09-24T16:00:54.684Z,14.60
2018-09-24T16:03:28.291Z,14.70
2018-09-24T16:06:01.686Z,14.70
2018-09-24T16:08:35.373Z,14.60
2018-09-24T16:11:08.946Z,14.50
2018-09-24T16:13:42.417Z,14.50
2018-09-24T16:16:15.951Z,14.50
2018-09-24T16:18:49.688Z,14.50
2018-09-24T16:21:23.376Z,14.50
2018-09-24T16:23:57.089Z,14.40
2018-09-24T16:26:30.654Z,14.40
2018-09-24T16:29:04.247Z,14.30
2018-09-24T16:31:37.750Z,14.00
2018-09-24T16:34:11.208Z,13.70
2018-09-24T16:36:44.748Z,13.50
2018-09-24T16:39:18.400Z,13.40
2018-09-24T16:41:52.062Z,13.40
2018-09-24T16:44:25.676Z,13.40
2018-09-24T16:46:59.248Z,13.40
2018-09-24T16:49:32.872Z,13.30
2018-09-24T16:52:06.443Z,13.30
2018-09-24T16:54:39.788Z,13.20
2018-09-24T16:57:13.239Z,13.20
2018-09-24T16:59:46.825Z,13.20
2018-09-24T17:02:20.597Z,13.10
2018-09-24T17:04:54.196Z,13.10
2018-09-24T17:07:27.719Z,13.10
2018-09-24T17:10:01.116Z,13.10
2018-09-24T17:12:34.774Z,13.10
2018-09-24T17:15:08.210Z,13.10
2018-09-24T17:17:41.886Z,13.10
2018-09-24T17:20:15.445Z,13.00
2018-09-24T17:22:49.182Z,12.90
2018-09-24T17:25:22.679Z,12.90
2018-09-24T17:27:56.152Z,12.80
2018-09-24T17:30:30.187Z,12.90
2018-09-24T17:33:03.677Z,12.90
2018-09-24T17:35:37.451Z,12.90
2018-09-24T17:38:10.897Z,12.80
2018-09-24T17:40:45.162Z,12.70
2018-09-24T17:43:18.775Z,12.60
2018-09-24T17:45:52.376Z,12.60
2018-09-24T17:48:26.021Z,12.60
2018-09-24T17:50:59.617Z,12.50
2018-09-24T17:53:32.981Z,12.50
2018-09-24T17:56:06.468Z,12.30
2018-09-24T17:58:39.953Z,12.30
2018-09-24T18:01:13.677Z,12.30
2018-09-24T18:03:47.202Z,12.20
2018-09-24T18:06:20.922Z,12.20
2018-09-24T18:08:54.503Z,12.10
2018-09-24T18:11:28.276Z,12.10
2018-09-24T18:14:01.918Z,12.00
2018-09-24T18:16:35.590Z,12.10
2018-09-24T18:19:09.121Z,12.10
2018-09-24T18:21:42.816Z,12.00
2018-09-24T18:24:16.313Z,12.00
2018-09-24T18:26:49.959Z,12.00
2018-09-24T18:29:23.548Z,12.00
2018-09-24T18:31:57.253Z,12.00
2018-09-24T18:34:30.944Z,11.90
2018-09-24T18:37:04.609Z,11.90
2018-09-24T18:39:38.107Z,11.90
2018-09-24T18:42:11.790Z,11.80
2018-09-24T18:44:45.230Z,11.80
2018-09-24T18:47:18.704Z,11.80
2018-09-24T18:49:52.366Z,11.80
2018-09-24T18:52:26.053Z,11.70
2018-09-24T18:54:59.843Z,11.60
2018-09-24T18:57:33.333Z,11.50
2018-09-24T19:00:07.059Z,11.50
2018-09-24T19:02:40.594Z,11.50
2018-09-24T19:05:14.247Z,11.50
2018-09-24T19:07:47.761Z,11.50
2018-09-24T19:10:21.203Z,11.50
2018-09-24T19:12:54.863Z,11.40
2018-09-24T19:15:28.326Z,11.30
2018-09-24T19:18:02.001Z,11.30
2018-09-24T19:20:35.558Z,11.30
2018-09-24T19:23:09.013Z,11.40
2018-09-24T19:25:42.613Z,11.30
2018-09-24T19:28:16.196Z,11.30
2018-09-24T19:30:49.878Z,11.20
2018-09-24T19:33:23.330Z,11.20
2018-09-24T19:35:56.843Z,11.20
2018-09-24T19:38:30.268Z,11.30
2018-09-24T19:41:03.616Z,11.20
2018-09-24T19:43:37.121Z,11.30
2018-09-24T19:46:10.511Z,11.30
2018-09-24T19:48:44.193Z,11.30
2018-09-24T19:51:17.734Z,11.20
2018-09-24T19:53:51.245Z,11.20
2018-09-24T19:56:24.649Z,11.20
2018-09-24T19:58:58.111Z,11.10
2018-09-24T20:01:31.527Z,11.10
2018-09-24T20:04:05.015Z,11.20
2018-09-24T20:06:38.408Z,11.10
2018-09-24T20:09:13.537Z,11.10
2018-09-24T20:11:47.221Z,11.10
2018-09-24T20:14:21.027Z,11.10
2018-09-24T20:16:54.766Z,11.10
2018-09-24T20:19:28.765Z,11.00
2018-09-24T20:22:02.590Z,11.00
2018-09-24T20:24:36.634Z,11.00
2018-09-24T20:27:10.348Z,10.90
2018-09-24T20:29:43.879Z,11.00
2018-09-24T20:32:17.550Z,10.90
2018-09-24T20:34:51.296Z,10.90
2018-09-24T20:37:24.924Z,10.90
2018-09-24T20:39:58.437Z,10.90
2018-09-24T20:42:32.066Z,10.80
2018-09-24T20:45:05.642Z,10.70
2018-09-24T20:47:39.191Z,10.70
2018-09-24T20:50:12.789Z,10.70
2018-09-24T20:52:46.422Z,10.60
2018-09-24T20:55:19.901Z,10.50
2018-09-24T20:57:53.366Z,10.40
2018-09-24T21:00:27.058Z,10.30
2018-09-24T21:03:00.681Z,10.30
2018-09-24T21:05:34.251Z,10.20
2018-09-24T21:08:07.656Z,10.10
2018-09-24T21:10:41.041Z,10.00
2018-09-24T21:13:14.570Z,9.90
2018-09-24T21:15:48.206Z,9.90
2018-09-24T21:18:22.095Z,9.90
2018-09-24T21:20:55.710Z,9.80
2018-09-24T21:23:29.336Z,9.70
2018-09-24T21:26:03.021Z,9.60
2018-09-24T21:28:36.464Z,9.50
2018-09-24T21:31:09.925Z,9.40
2018-09-24T21:33:43.288Z,9.40
2018-09-24T21:36:16.917Z,9.30
2018-09-24T21:38:50.455Z,9.30
2018-09-24T21:41:24.137Z,9.20
2018-09-24T21:43:57.845Z,9.20
2018-09-24T21:46:31.486Z,9.10
2018-09-24T21:49:05.031Z,9.10
2018-09-24T21:51:38.736Z,9.00
2018-09-24T21:54:12.179Z,9.00
2018-09-24T21:56:45.898Z,9.00
2018-09-24T21:59:19.514Z,8.90
2018-09-24T22:01:53.143Z,8.90
2018-09-24T22:04:26.477Z,8.80
2018-09-24T22:06:59.811Z,8.80
2018-09-24T22:09:33.430Z,8.60
2018-09-24T22:12:07.073Z,8.70
2018-09-24T22:14:40.424Z,8.70
2018-09-24T22:17:13.748Z,8.60
2018-09-24T22:19:47.309Z,8.60
2018-09-24T22:22:20.893Z,8.50
2018-09-24T22:24:54.503Z,8.50
2018-09-24T22:27:27.953Z,8.50
2018-09-24T22:30:01.669Z,8.40
2018-09-24T22:32:35.326Z,8.50
2018-09-24T22:35:08.825Z,8.50
2018-09-24T22:37:42.217Z,8.50
2018-09-24T22:40:15.911Z,8.40
2018-09-24T22:42:49.602Z,8.40
2018-09-24T22:45:23.090Z,8.30
2018-09-24T22:47:56.650Z,8.20
2018-09-24T22:50:30.413Z,8.20
2018-09-24T22:53:04.080Z,8.20
2018-09-24T22:55:37.715Z,8.20
2018-09-24T22:58:11.292Z,8.20
2018-09-24T23:00:44.957Z,8.20
2018-09-24T23:03:18.424Z,8.20
2018-09-24T23:05:52.081Z,8.10
2018-09-24T23:08:25.560Z,8.10
2018-09-24T23:10:58.964Z,8.10
2018-09-24T23:13:32.338Z,8.10
2018-09-24T23:16:05.884Z,8.10
2018-09-24T23:18:39.527Z,8.00
2018-09-24T23:21:12.910Z,8.00
2018-09-24T23:23:46.386Z,7.90
2018-09-24T23:26:19.835Z,7.90
2018-09-24T23:28:53.529Z,7.90
2018-09-24T23:31:26.990Z,7.80
2018-09-24T23:34:00.625Z,7.80
2018-09-24T23:36:34.289Z,7.80
2018-09-24T23:39:07.942Z,7.80
2018-09-24T23:41:41.534Z,7.80
2018-09-24T23:44:15.435Z,7.70
2018-09-24T23:46:49.123Z,7.60
2018-09-24T23:49:22.543Z,7.60
2018-09-24T23:51:56.236Z,7.60
2018-09-24T23:54:29.810Z,7.60
2018-09-24T23:57:03.434Z,7.50
2018-09-24T23:59:36.822Z,7.60
